createdAt,value
2018-08-04T00:00:15.985Z,20.17
2018-08-04T00:02:45.602Z,19.70
2018-08-04T00:05:15.376Z,19.80
2018-08-04T00:07:45.068Z,19.74
2018-08-04T00:10:18.670Z,19.50
2018-08-04T00:12:51.622Z,19.67
2018-08-04T00:15:21.794Z,19.58
2018-08-04T00:17:51.649Z,19.49
2018-08-04T00:20:21.546Z,19.45
2018-08-04T00:22:51.123Z,19.35
2018-08-04T00:25:21.023Z,19.38
2018-08-04T00:27:51.048Z,19.25
2018-08-04T00:30:20.613Z,19.20
2018-08-04T00:32:50.162Z,18.96
2018-08-04T00:35:19.733Z,18.88
2018-08-04T00:37:49.474Z,18.82
2018-08-04T00:40:19.256Z,18.77
2018-08-04T00:42:48.971Z,18.86
2018-08-04T00:45:18.969Z,18.87
2018-08-04T00:47:48.815Z,18.85
2018-08-04T00:50:18.842Z,18.89
2018-08-04T00:52:48.662Z,18.78
2018-08-04T00:55:18.339Z,18.87
2018-08-04T00:57:48.154Z,19.03
2018-08-04T01:00:17.746Z,18.81
2018-08-04T01:02:47.291Z,18.77
2018-08-04T01:05:17.020Z,18.93
2018-08-04T01:07:46.988Z,18.95
2018-08-04T01:10:16.732Z,19.04
2018-08-04T01:12:46.551Z,19.03
2018-08-04T01:15:16.543Z,19.02
2018-08-04T01:17:46.457Z,18.86
2018-08-04T01:20:16.434Z,18.81
2018-08-04T01:22:46.301Z,18.49
2018-08-04T01:25:16.250Z,18.42
2018-08-04T01:27:46.048Z,18.41
2018-08-04T01:30:16.099Z,18.42
2018-08-04T01:32:45.803Z,18.21
2018-08-04T01:35:15.720Z,18.15
2018-08-04T01:37:45.494Z,18.19
2018-08-04T01:40:15.078Z,18.15
2018-08-04T01:42:44.648Z,18.14
2018-08-04T01:45:14.359Z,18.22
2018-08-04T01:47:43.912Z,18.16
2018-08-04T01:50:13.863Z,18.00
2018-08-04T01:52:43.848Z,17.99
2018-08-04T01:55:13.527Z,17.84
2018-08-04T01:57:43.313Z,17.97
2018-08-04T02:00:13.098Z,18.00
2018-08-04T02:02:42.858Z,17.87
2018-08-04T02:05:12.651Z,17.76
2018-08-04T02:07:42.390Z,17.79
2018-08-04T02:10:12.223Z,17.61
2018-08-04T02:12:42.162Z,17.71
2018-08-04T02:15:11.943Z,17.66
2018-08-04T02:17:41.679Z,17.71
2018-08-04T02:20:11.519Z,17.72
2018-08-04T02:22:41.186Z,17.73
2018-08-04T02:25:11.006Z,17.70
2018-08-04T02:27:40.636Z,17.64
2018-08-04T02:30:10.212Z,17.81
2018-08-04T02:32:39.825Z,17.95
2018-08-04T02:35:09.607Z,18.09
2018-08-04T02:37:39.278Z,18.12
2018-08-04T02:40:09.326Z,18.11
2018-08-04T02:42:39.075Z,18.13
2018-08-04T02:45:09.194Z,18.12
2018-08-04T02:47:39.217Z,18.12
2018-08-04T02:50:09.749Z,18.12
2018-08-04T02:52:39.400Z,18.03
2018-08-04T02:55:09.120Z,17.96
2018-08-04T02:57:38.905Z,17.99
2018-08-04T03:00:08.553Z,17.83
2018-08-04T03:02:38.311Z,17.67
2018-08-04T03:05:09.011Z,17.67
2018-08-04T03:07:38.618Z,17.46
2018-08-04T03:10:08.626Z,17.27
2018-08-04T03:12:38.210Z,17.30
2018-08-04T03:15:08.314Z,17.12
2018-08-04T03:17:38.057Z,17.16
2018-08-04T03:20:08.466Z,17.02
2018-08-04T03:22:38.516Z,16.90
2018-08-04T03:25:08.655Z,17.07
2018-08-04T03:27:38.255Z,17.12
2018-08-04T03:30:07.907Z,17.18
2018-08-04T03:32:37.490Z,17.17
2018-08-04T03:35:07.362Z,17.01
2018-08-04T03:37:37.084Z,17.17
2018-08-04T03:40:06.967Z,17.26
2018-08-04T03:42:36.896Z,17.14
2018-08-04T03:45:06.869Z,17.24
2018-08-04T03:47:36.646Z,17.18
2018-08-04T03:50:07.373Z,17.28
2018-08-04T03:52:37.322Z,17.35
2018-08-04T03:55:07.216Z,17.31
2018-08-04T03:57:37.218Z,17.56
2018-08-04T04:00:07.351Z,17.57
2018-08-04T04:02:37.002Z,17.62
2018-08-04T04:05:06.969Z,17.57
2018-08-04T04:07:36.944Z,17.48
2018-08-04T04:10:06.886Z,17.65
2018-08-04T04:12:36.678Z,17.57
2018-08-04T04:15:07.395Z,17.70
2018-08-04T04:17:43.670Z,17.81
2018-08-04T04:20:13.598Z,17.67
2018-08-04T04:22:43.407Z,17.68
2018-08-04T04:25:13.487Z,17.78
2018-08-04T04:27:43.612Z,17.87
2018-08-04T04:30:13.811Z,17.99
2018-08-04T04:32:43.534Z,18.08
2018-08-04T04:35:13.277Z,18.22
2018-08-04T04:37:42.958Z,18.22
2018-08-04T04:40:12.815Z,18.39
2018-08-04T04:42:42.875Z,18.52
2018-08-04T04:45:12.640Z,18.71
2018-08-04T04:47:42.400Z,18.80
2018-08-04T04:50:12.250Z,18.83
2018-08-04T04:52:41.923Z,19.00
2018-08-04T04:55:11.906Z,19.06
2018-08-04T04:57:41.558Z,19.16
2018-08-04T05:00:11.082Z,19.34
2018-08-04T05:02:40.718Z,19.54
2018-08-04T05:05:10.940Z,19.65
2018-08-04T05:07:40.550Z,19.83
2018-08-04T05:10:10.464Z,20.02
2018-08-04T05:12:40.236Z,20.24
2018-08-04T05:15:10.100Z,20.41
2018-08-04T05:17:40.165Z,20.57
2018-08-04T05:20:09.881Z,20.57
2018-08-04T05:22:39.690Z,20.45
2018-08-04T05:25:09.603Z,20.66
2018-08-04T05:27:39.336Z,20.77
2018-08-04T05:30:09.039Z,20.77
2018-08-04T05:32:38.836Z,20.73
2018-08-04T05:35:08.545Z,20.86
2018-08-04T05:37:38.319Z,21.07
2018-08-04T05:40:08.483Z,21.12
2018-08-04T05:42:38.347Z,21.28
2018-08-04T05:45:09.123Z,21.34
2018-08-04T05:47:39.174Z,21.45
2018-08-04T05:50:09.145Z,21.52
2018-08-04T05:52:39.343Z,21.72
2018-08-04T05:55:09.277Z,21.78
2018-08-04T05:57:38.843Z,21.96
2018-08-04T06:00:09.382Z,21.80
2018-08-04T06:02:39.133Z,21.97
2018-08-04T06:05:09.275Z,22.17
2018-08-04T06:07:39.238Z,22.21
2018-08-04T06:10:09.185Z,22.14
2018-08-04T06:12:38.875Z,22.42
2018-08-04T06:15:08.622Z,22.58
2018-08-04T06:17:38.383Z,22.72
2018-08-04T06:20:08.162Z,22.83
2018-08-04T06:22:38.190Z,22.88
2018-08-04T06:25:08.076Z,22.81
2018-08-04T06:27:37.678Z,22.81
2018-08-04T06:30:08.875Z,23.04
2018-08-04T06:32:38.798Z,23.07
2018-08-04T06:35:08.514Z,22.91
2018-08-04T06:37:38.231Z,22.91
2018-08-04T06:40:08.442Z,22.97
2018-08-04T06:42:38.102Z,23.04
2018-08-04T06:45:07.967Z,23.04
2018-08-04T06:47:37.736Z,23.11
2018-08-04T06:50:08.199Z,22.96
2018-08-04T06:52:38.156Z,23.08
2018-08-04T06:55:08.149Z,23.11
2018-08-04T06:57:37.766Z,23.17
2018-08-04T07:01:58.824Z,22.99
2018-08-04T07:04:28.834Z,23.19
2018-08-04T07:06:58.634Z,23.41
2018-08-04T07:09:28.353Z,23.43
2018-08-04T07:11:58.493Z,23.62
2018-08-04T07:14:28.194Z,23.77
2018-08-04T07:16:58.074Z,23.69
2018-08-04T07:19:28.221Z,23.87
2018-08-04T07:21:58.062Z,24.03
2018-08-04T07:24:27.926Z,23.90
2018-08-04T07:26:57.482Z,24.20
2018-08-04T07:29:27.185Z,24.07
2018-08-04T07:31:57.159Z,24.24
2018-08-04T07:34:27.051Z,24.59
2018-08-04T07:36:56.814Z,24.70
2018-08-04T07:39:26.654Z,24.83
2018-08-04T07:41:56.505Z,25.05
2018-08-04T07:44:26.178Z,25.35
2018-08-04T07:46:55.963Z,25.45
2018-08-04T07:49:31.400Z,25.55
2018-08-04T07:52:01.406Z,25.65
2018-08-04T07:54:30.956Z,25.65
2018-08-04T07:57:00.498Z,25.98
2018-08-04T07:59:30.285Z,26.03
2018-08-04T08:02:00.086Z,26.30
2018-08-04T08:04:29.762Z,26.05
2018-08-04T08:06:59.713Z,26.40
2018-08-04T08:09:29.676Z,26.43
2018-08-04T08:11:59.472Z,26.56
2018-08-04T08:14:29.133Z,26.86
2018-08-04T08:16:58.815Z,26.71
2018-08-04T08:19:28.851Z,26.66
2018-08-04T08:21:58.506Z,26.84
2018-08-04T08:24:28.238Z,26.91
2018-08-04T08:26:57.883Z,27.04
2018-08-04T08:29:27.466Z,27.14
2018-08-04T08:31:57.322Z,27.08
2018-08-04T08:34:27.272Z,26.93
2018-08-04T08:36:57.350Z,26.93
2018-08-04T08:39:26.990Z,27.09
2018-08-04T08:41:56.748Z,27.16
2018-08-04T08:44:26.475Z,27.05
2018-08-04T08:46:56.316Z,27.24
2018-08-04T08:49:26.054Z,27.22
2018-08-04T08:51:55.535Z,27.30
2018-08-04T08:54:25.101Z,27.29
2018-08-04T08:56:55.147Z,27.65
2018-08-04T08:59:24.907Z,27.68
2018-08-04T09:01:54.731Z,27.79
2018-08-04T09:04:24.408Z,27.68
2018-08-04T09:06:54.516Z,27.93
2018-08-04T09:09:24.352Z,28.10
2018-08-04T09:11:54.319Z,28.25
2018-08-04T09:14:24.292Z,28.33
2018-08-04T09:16:54.029Z,28.58
2018-08-04T09:19:23.899Z,28.53
2018-08-04T09:21:53.638Z,28.53
2018-08-04T09:24:23.561Z,28.56
2018-08-04T09:26:53.429Z,28.77
2018-08-04T09:29:23.218Z,29.15
2018-08-04T09:31:53.087Z,29.21
2018-08-04T09:34:23.159Z,29.19
2018-08-04T09:36:52.804Z,29.44
2018-08-04T09:39:22.547Z,29.54
2018-08-04T09:41:52.252Z,29.51
2018-08-04T09:44:21.966Z,29.75
2018-08-04T09:46:51.873Z,29.84
2018-08-04T09:49:21.803Z,29.96
2018-08-04T09:51:52.078Z,30.27
2018-08-04T09:54:21.731Z,30.34
2018-08-04T09:56:51.387Z,30.59
2018-08-04T09:59:21.463Z,30.47
2018-08-04T10:01:55.282Z,30.62
2018-08-04T10:04:25.278Z,30.74
2018-08-04T10:06:55.711Z,30.61
2018-08-04T10:09:25.489Z,30.73
2018-08-04T10:11:55.139Z,30.94
2018-08-04T10:14:25.213Z,30.69
2018-08-04T10:16:55.104Z,30.96
2018-08-04T10:19:25.265Z,30.75
2018-08-04T10:21:55.272Z,30.61
2018-08-04T10:24:24.913Z,30.43
2018-08-04T10:26:54.942Z,30.80
2018-08-04T10:29:24.686Z,31.02
2018-08-04T10:31:54.749Z,31.38
2018-08-04T10:34:24.807Z,31.51
2018-08-04T10:36:54.504Z,31.33
2018-08-04T10:39:24.189Z,31.51
2018-08-04T10:41:53.878Z,30.78
2018-08-04T10:44:23.718Z,31.01
2018-08-04T10:46:53.723Z,30.79
2018-08-04T10:49:23.628Z,31.20
2018-08-04T10:51:53.317Z,31.36
2018-08-04T10:54:22.994Z,31.78
2018-08-04T10:56:52.622Z,31.99
2018-08-04T10:59:22.343Z,31.86
2018-08-04T11:01:52.328Z,31.44
2018-08-04T11:04:22.345Z,31.41
2018-08-04T11:06:52.059Z,31.75
2018-08-04T11:09:21.747Z,31.63
2018-08-04T11:11:51.427Z,32.09
2018-08-04T11:14:21.114Z,32.27
2018-08-04T11:16:51.446Z,32.36
2018-08-04T11:19:21.383Z,32.14
2018-08-04T11:21:51.439Z,32.76
2018-08-04T11:24:21.339Z,32.97
2018-08-04T11:26:51.257Z,33.07
2018-08-04T11:29:21.657Z,33.37
2018-08-04T11:31:51.659Z,33.78
2018-08-04T11:34:21.590Z,33.95
2018-08-04T11:36:51.622Z,34.51
2018-08-04T11:39:21.323Z,34.24
2018-08-04T11:41:51.191Z,33.89
2018-08-04T11:44:21.492Z,33.38
2018-08-04T11:46:51.402Z,33.50
2018-08-04T11:49:21.315Z,33.56
2018-08-04T11:51:51.167Z,33.49
2018-08-04T11:54:21.125Z,33.51
2018-08-04T11:56:50.978Z,33.53
2018-08-04T11:59:20.535Z,33.64
2018-08-04T12:01:50.229Z,33.44
2018-08-04T12:04:20.047Z,33.25
2018-08-04T12:06:50.116Z,33.22
2018-08-04T12:09:20.342Z,33.05
2018-08-04T12:11:50.368Z,32.91
2018-08-04T12:14:20.136Z,32.50
2018-08-04T12:16:50.166Z,32.67
2018-08-04T12:19:19.876Z,32.84
2018-08-04T12:21:49.461Z,32.67
2018-08-04T12:24:18.956Z,32.65
2018-08-04T12:26:48.943Z,32.69
2018-08-04T12:29:18.543Z,32.35
2018-08-04T12:31:48.480Z,32.05
2018-08-04T12:34:18.564Z,31.86
2018-08-04T12:36:48.361Z,31.63
2018-08-04T12:39:18.340Z,31.46
2018-08-04T12:41:48.432Z,31.31
2018-08-04T12:44:18.158Z,31.37
2018-08-04T12:46:47.918Z,31.16
2018-08-04T12:49:17.399Z,31.24
2018-08-04T12:51:47.142Z,31.04
2018-08-04T12:54:16.988Z,31.29
2018-08-04T12:56:46.674Z,31.00
2018-08-04T12:59:16.175Z,30.87
2018-08-04T13:01:45.881Z,30.85
2018-08-04T13:04:15.800Z,30.72
2018-08-04T13:06:45.702Z,30.41
2018-08-04T13:09:15.289Z,30.66
2018-08-04T13:11:44.871Z,31.06
2018-08-04T13:14:14.693Z,31.44
2018-08-04T13:16:44.518Z,31.40
2018-08-04T13:19:14.150Z,31.54
2018-08-04T13:21:43.870Z,31.56
2018-08-04T13:24:13.530Z,31.40
2018-08-04T13:26:43.330Z,31.27
2018-08-04T13:29:12.901Z,31.06
2018-08-04T13:31:42.879Z,30.97
2018-08-04T13:34:12.551Z,31.10
2018-08-04T13:36:42.442Z,30.94
2018-08-04T13:39:12.414Z,30.61
2018-08-04T13:41:42.481Z,30.76
2018-08-04T13:44:12.437Z,30.96
2018-08-04T13:46:42.318Z,31.49
2018-08-04T13:49:12.061Z,31.76
2018-08-04T13:51:41.842Z,31.68
2018-08-04T13:54:11.578Z,31.79
2018-08-04T13:56:41.122Z,31.66
2018-08-04T13:59:10.782Z,31.32
2018-08-04T14:01:40.504Z,30.64
2018-08-04T14:04:10.403Z,30.63
2018-08-04T14:06:40.190Z,30.75
2018-08-04T14:09:11.273Z,31.27
2018-08-04T14:11:40.990Z,31.14
2018-08-04T14:14:10.847Z,31.11
2018-08-04T14:16:40.450Z,31.48
2018-08-04T14:19:10.062Z,31.40
2018-08-04T14:21:40.050Z,31.09
2018-08-04T14:24:10.111Z,31.31
2018-08-04T14:26:40.142Z,31.07
2018-08-04T14:29:10.370Z,30.98
2018-08-04T14:31:40.484Z,30.70
2018-08-04T14:34:10.638Z,30.55
2018-08-04T14:36:40.336Z,30.27
2018-08-04T14:39:12.446Z,30.49
2018-08-04T14:41:42.843Z,30.95
2018-08-04T14:44:12.654Z,31.41
2018-08-04T14:46:42.377Z,31.80
2018-08-04T14:49:11.994Z,31.83
2018-08-04T14:51:41.913Z,32.17
2018-08-04T14:54:11.959Z,31.91
2018-08-04T14:56:41.748Z,32.00
2018-08-04T14:59:11.642Z,31.92
2018-08-04T15:01:41.598Z,31.95
2018-08-04T15:04:11.606Z,31.79
2018-08-04T15:06:41.712Z,31.83
2018-08-04T15:09:12.708Z,31.68
2018-08-04T15:11:42.756Z,31.35
2018-08-04T15:14:12.473Z,31.46
2018-08-04T15:16:42.297Z,31.49
2018-08-04T15:19:11.994Z,31.76
2018-08-04T15:21:42.186Z,31.99
2018-08-04T15:24:11.990Z,32.10
2018-08-04T15:26:41.979Z,32.18
2018-08-04T15:29:11.657Z,31.90
2018-08-04T15:31:41.363Z,32.31
2018-08-04T15:34:11.115Z,32.43
2018-08-04T15:36:40.752Z,32.31
2018-08-04T15:39:11.061Z,32.44
2018-08-04T15:41:41.170Z,32.35
2018-08-04T15:44:11.324Z,32.74
2018-08-04T15:46:41.279Z,32.76
2018-08-04T15:49:11.323Z,32.73
2018-08-04T15:51:40.937Z,32.45
2018-08-04T15:54:10.794Z,32.09
2018-08-04T15:56:40.599Z,31.26
2018-08-04T15:59:10.346Z,30.83
2018-08-04T16:01:39.950Z,30.58
2018-08-04T16:04:09.886Z,30.41
2018-08-04T16:06:39.399Z,30.17
2018-08-04T16:09:10.378Z,30.11
2018-08-04T16:11:41.448Z,29.77
2018-08-04T16:14:11.572Z,29.47
2018-08-04T16:16:41.614Z,29.35
2018-08-04T16:19:11.459Z,29.33
2018-08-04T16:21:41.147Z,28.88
2018-08-04T16:24:10.858Z,28.95
2018-08-04T16:26:40.774Z,28.88
2018-08-04T16:29:10.810Z,29.05
2018-08-04T16:31:40.600Z,29.34
2018-08-04T16:34:10.353Z,29.56
2018-08-04T16:36:39.889Z,29.78
2018-08-04T16:39:10.490Z,29.88
2018-08-04T16:41:40.699Z,30.24
2018-08-04T16:44:10.459Z,30.58
2018-08-04T16:46:40.269Z,30.86
2018-08-04T16:49:09.980Z,31.06
2018-08-04T16:51:39.904Z,31.11
2018-08-04T16:54:09.606Z,30.96
2018-08-04T16:56:39.378Z,31.28
2018-08-04T16:59:09.374Z,31.54
2018-08-04T17:01:39.338Z,31.03
2018-08-04T17:04:08.987Z,31.35
2018-08-04T17:06:38.599Z,31.00
2018-08-04T17:09:10.748Z,31.10
2018-08-04T17:11:40.723Z,31.02
2018-08-04T17:14:10.578Z,31.08
2018-08-04T17:16:40.227Z,30.94
2018-08-04T17:19:10.046Z,30.56
2018-08-04T17:21:39.719Z,30.56
2018-08-04T17:24:09.631Z,30.50
2018-08-04T17:26:39.547Z,30.08
2018-08-04T17:29:09.290Z,29.99
2018-08-04T17:31:39.071Z,29.98
2018-08-04T17:34:08.723Z,29.62
2018-08-04T17:36:38.351Z,29.41
2018-08-04T17:39:09.971Z,28.98
2018-08-04T17:41:40.011Z,28.99
2018-08-04T17:44:09.974Z,28.95
2018-08-04T17:46:39.835Z,28.59
2018-08-04T17:49:09.500Z,28.49
2018-08-04T17:51:39.210Z,28.29
2018-08-04T17:54:08.991Z,28.11
2018-08-04T17:56:38.801Z,27.89
2018-08-04T17:59:08.551Z,27.71
2018-08-04T18:01:38.148Z,27.39
2018-08-04T18:04:07.874Z,27.25
2018-08-04T18:06:37.570Z,27.05
2018-08-04T18:09:09.422Z,26.88
2018-08-04T18:11:40.322Z,26.53
2018-08-04T18:14:10.087Z,26.49
2018-08-04T18:16:40.124Z,26.44
2018-08-04T18:19:09.715Z,26.31
2018-08-04T18:21:39.423Z,26.10
2018-08-04T18:24:09.094Z,25.78
2018-08-04T18:26:39.130Z,25.05
2018-08-04T18:29:08.962Z,24.79
2018-08-04T18:31:38.554Z,24.62
2018-08-04T18:34:08.176Z,24.27
2018-08-04T18:36:37.762Z,24.06
2018-08-04T18:39:08.822Z,23.68
2018-08-04T18:41:38.647Z,23.75
2018-08-04T18:44:08.836Z,23.50
2018-08-04T18:46:38.744Z,23.12
2018-08-04T18:49:08.598Z,23.03
2018-08-04T18:51:38.196Z,22.70
2018-08-04T18:54:08.083Z,22.40
2018-08-04T18:56:37.957Z,22.19
2018-08-04T18:59:07.653Z,22.37
2018-08-04T19:01:37.143Z,22.28
2018-08-04T19:04:06.663Z,22.10
2018-08-04T19:06:36.251Z,21.90
2018-08-04T19:09:08.894Z,21.96
2018-08-04T19:11:38.645Z,21.75
2018-08-04T19:14:09.165Z,21.71
2018-08-04T19:16:39.169Z,21.74
2018-08-04T19:19:09.033Z,21.49
2018-08-04T19:21:38.748Z,21.46
2018-08-04T19:24:08.592Z,21.38
2018-08-04T19:26:38.101Z,21.51
2018-08-04T19:29:07.848Z,21.35
2018-08-04T19:31:37.412Z,21.12
2018-08-04T19:34:07.055Z,21.03
2018-08-04T19:36:36.609Z,21.03
2018-08-04T19:39:08.531Z,21.08
2018-08-04T19:41:38.354Z,21.02
2018-08-04T19:44:08.182Z,21.01
2018-08-04T19:46:37.899Z,20.91
2018-08-04T19:49:07.536Z,20.90
2018-08-04T19:51:37.630Z,20.75
2018-08-04T19:54:07.378Z,20.78
2018-08-04T19:56:37.191Z,20.80
2018-08-04T19:59:07.006Z,20.81
2018-08-04T20:01:36.704Z,20.57
2018-08-04T20:04:06.572Z,20.48
2018-08-04T20:06:36.534Z,20.73
2018-08-04T20:09:08.728Z,20.62
2018-08-04T20:11:38.574Z,20.48
2018-08-04T20:14:08.402Z,20.59
2018-08-04T20:16:37.965Z,20.61
2018-08-04T20:19:07.796Z,20.54
2018-08-04T20:21:37.800Z,20.56
2018-08-04T20:24:07.890Z,20.49
2018-08-04T20:26:37.407Z,20.60
2018-08-04T20:29:07.366Z,20.62
2018-08-04T20:31:37.434Z,20.44
2018-08-04T20:34:07.013Z,20.43
2018-08-04T20:36:36.727Z,20.22
2018-08-04T20:39:09.040Z,20.11
2018-08-04T20:41:38.650Z,20.13
2018-08-04T20:44:08.551Z,19.91
2018-08-04T20:46:38.575Z,19.97
2018-08-04T20:49:08.595Z,20.05
2018-08-04T20:51:38.359Z,19.85
2018-08-04T20:54:08.436Z,19.92
2018-08-04T20:56:38.603Z,19.93
2018-08-04T20:59:08.222Z,19.89
2018-08-04T21:01:47.718Z,19.77
2018-08-04T21:04:17.570Z,19.96
2018-08-04T21:06:48.048Z,20.27
2018-08-04T21:09:17.835Z,19.81
2018-08-04T21:11:50.582Z,19.86
2018-08-04T21:14:21.691Z,19.60
2018-08-04T21:16:52.336Z,19.83
2018-08-04T21:19:23.026Z,19.83
2018-08-04T21:21:52.658Z,20.17
2018-08-04T21:24:23.837Z,19.85
2018-08-04T21:26:54.678Z,19.84
2018-08-04T21:29:24.804Z,19.95
2018-08-04T21:31:54.496Z,19.97
2018-08-04T21:34:24.200Z,20.03
2018-08-04T21:36:54.038Z,19.97
2018-08-04T21:39:23.939Z,19.94
2018-08-04T21:41:53.984Z,19.76
2018-08-04T21:44:23.938Z,19.65
2018-08-04T21:46:53.922Z,19.56
2018-08-04T21:49:23.636Z,19.55
2018-08-04T21:51:53.495Z,19.52
2018-08-04T21:54:23.304Z,19.29
2018-08-04T21:56:53.270Z,19.48
2018-08-04T21:59:22.947Z,19.46
2018-08-04T22:01:54.845Z,19.51
2018-08-04T22:04:24.947Z,19.33
2018-08-04T22:08:06.879Z,19.47
2018-08-04T22:10:36.829Z,19.26
2018-08-04T22:13:06.991Z,19.04
2018-08-04T22:15:37.077Z,18.93
2018-08-04T22:18:07.138Z,19.04
2018-08-04T22:20:37.163Z,19.03
2018-08-04T22:23:07.300Z,18.83
2018-08-04T22:25:37.414Z,18.91
2018-08-04T22:28:07.198Z,18.86
2018-08-04T22:30:36.930Z,18.91
2018-08-04T22:33:07.015Z,18.77
2018-08-04T22:35:37.083Z,18.60
2018-08-04T22:38:07.141Z,18.54
2018-08-04T22:40:37.219Z,18.56
2018-08-04T22:43:07.399Z,18.52
2018-08-04T22:46:11.419Z,18.55
2018-08-04T22:48:42.335Z,18.47
2018-08-04T22:51:12.404Z,18.50
2018-08-04T22:53:42.562Z,18.45
2018-08-04T22:56:12.558Z,18.52
2018-08-04T22:58:42.251Z,18.56
2018-08-04T23:01:11.901Z,18.52
2018-08-04T23:03:41.630Z,18.30
2018-08-04T23:06:11.763Z,18.40
2018-08-04T23:08:41.674Z,18.44
2018-08-04T23:11:11.739Z,18.41
2018-08-04T23:13:41.689Z,18.40
2018-08-04T23:16:11.864Z,18.34
2018-08-04T23:18:41.910Z,18.28
2018-08-04T23:21:12.105Z,18.29
2018-08-04T23:23:42.150Z,18.20
2018-08-04T23:26:12.234Z,18.16
2018-08-04T23:28:42.323Z,18.22
2018-08-04T23:31:12.004Z,18.18
2018-08-04T23:33:41.716Z,18.10
2018-08-04T23:36:11.834Z,18.32
2018-08-04T23:38:41.800Z,18.19
2018-08-04T23:41:11.879Z,18.36
2018-08-04T23:43:41.873Z,18.05
2018-08-04T23:46:11.574Z,17.95
2018-08-04T23:48:41.377Z,17.94
2018-08-04T23:51:11.187Z,17.86
2018-08-04T23:53:41.030Z,17.92
2018-08-04T23:56:10.931Z,17.95
2018-08-04T23:58:40.467Z,18.00
